Time;durP1;ratioP1;P1;durP2;ratioP2;P2;SDS_P1;SDS_P2;PMS_P1;PMS_P2;Temp;Humidity;BMP_temperature;BMP_pressure;BME280_temperature;BME280_humidity;BME280_pressure;Samples;Min_cycle;Max_cycle;Signal;HPM_P1;HPM_P2
2021/07/02 00:00:21;;;;;;;33.83;25.23;;;17.70;99.90;;;;;;5089560;28;20473;-89
2021/07/02 00:02:46;;;;;;;36.30;26.02;;;17.80;99.90;;;;;;5092467;28;20890;-88
2021/07/02 00:05:13;;;;;;;33.73;24.50;;;17.80;99.90;;;;;;5110732;28;20362;-88
2021/07/02 00:07:39;;;;;;;32.95;25.10;;;17.80;99.90;;;;;;5093937;28;20397;-88
2021/07/02 00:10:07;;;;;;;37.95;26.92;;;17.80;99.90;;;;;;5093167;28;20407;-89
2021/07/02 00:12:34;;;;;;;32.10;26.23;;;17.90;99.90;;;;;;5109105;28;20377;-90
2021/07/02 00:15:01;;;;;;;35.17;24.95;;;17.90;99.90;;;;;;5087697;28;20429;-89
2021/07/02 00:17:26;;;;;;;34.03;26.77;;;17.90;99.90;;;;;;5082539;28;20919;-89
2021/07/02 00:19:52;;;;;;;36.95;27.27;;;18.00;99.90;;;;;;5082420;28;20371;-88
2021/07/02 00:22:17;;;;;;;29.93;23.30;;;17.80;99.90;;;;;;5084265;28;20355;-89
2021/07/02 00:24:43;;;;;;;33.17;26.00;;;17.90;99.90;;;;;;5082206;28;20371;-89
2021/07/02 00:27:09;;;;;;;41.07;25.47;;;17.90;99.90;;;;;;5082412;28;20359;-89
2021/07/02 00:29:34;;;;;;;31.05;24.50;;;18.00;99.90;;;;;;5083378;28;20425;-88
2021/07/02 00:32:00;;;;;;;34.30;25.07;;;18.00;99.90;;;;;;5090556;28;20852;-88
2021/07/02 00:34:25;;;;;;;39.75;26.83;;;17.90;99.90;;;;;;5094187;28;20367;-89
2021/07/02 00:36:51;;;;;;;37.97;27.40;;;17.90;99.90;;;;;;5093664;28;20374;-89
2021/07/02 00:39:17;;;;;;;32.40;24.80;;;17.80;99.90;;;;;;5093497;28;20789;-89
2021/07/02 00:41:42;;;;;;;42.70;28.03;;;18.00;99.90;;;;;;5094010;28;20884;-90
2021/07/02 00:44:08;;;;;;;32.70;25.95;;;17.90;99.90;;;;;;5092654;28;20461;-89
2021/07/02 00:46:33;;;;;;;35.30;26.83;;;17.90;99.90;;;;;;5092540;28;20420;-88
2021/07/02 00:49:00;;;;;;;33.03;25.73;;;17.90;99.90;;;;;;5110529;28;20701;-88
2021/07/02 00:51:29;;;;;;;34.03;27.05;;;18.00;99.90;;;;;;5092608;28;20436;-88
2021/07/02 00:53:56;;;;;;;32.72;24.90;;;18.10;99.90;;;;;;5093005;28;20879;-88
2021/07/02 00:56:22;;;;;;;29.23;23.52;;;17.90;99.90;;;;;;5092751;28;20371;-89
2021/07/02 00:58:47;;;;;;;34.65;25.08;;;18.00;99.90;;;;;;5111672;28;20362;-88
2021/07/02 01:01:16;;;;;;;29.40;24.37;;;18.00;99.90;;;;;;5093446;28;20405;-89
2021/07/02 01:03:44;;;;;;;37.33;27.80;;;18.00;99.90;;;;;;5093391;28;20382;-88
2021/07/02 01:06:11;;;;;;;40.50;28.92;;;17.90;99.90;;;;;;5093816;28;20398;-89
2021/07/02 01:08:37;;;;;;;37.53;28.27;;;17.90;99.90;;;;;;5093225;28;20779;-88
2021/07/02 01:11:02;;;;;;;46.20;29.47;;;17.90;99.90;;;;;;5093037;28;20463;-89
2021/07/02 01:13:28;;;;;;;42.17;26.73;;;17.90;99.90;;;;;;5096679;28;20378;-87
2021/07/02 01:15:54;;;;;;;37.60;26.48;;;17.90;99.90;;;;;;5097587;28;20374;-88
2021/07/02 01:18:22;;;;;;;41.53;26.52;;;18.00;99.90;;;;;;5096994;28;20374;-89
2021/07/02 01:20:49;;;;;;;45.65;28.42;;;17.90;99.90;;;;;;5097615;28;20379;-89
2021/07/02 01:23:15;;;;;;;41.30;27.00;;;17.90;99.90;;;;;;5097368;28;20389;-88
2021/07/02 01:25:42;;;;;;;34.58;25.75;;;17.80;99.90;;;;;;5097307;28;20375;-90
2021/07/02 01:28:08;;;;;;;36.83;25.75;;;17.80;99.90;;;;;;5096992;28;20406;-89
2021/07/02 01:30:33;;;;;;;29.73;23.83;;;17.80;99.90;;;;;;5097168;28;20480;-87
2021/07/02 01:32:59;;;;;;;35.83;24.63;;;17.80;99.90;;;;;;5097284;28;20717;-89
2021/07/02 01:35:25;;;;;;;31.10;23.83;;;17.80;99.90;;;;;;5097678;28;20355;-90
2021/07/02 01:37:50;;;;;;;28.87;20.67;;;17.70;99.90;;;;;;5115795;28;20925;-86
2021/07/02 01:40:16;;;;;;;29.48;21.17;;;17.70;99.90;;;;;;5097429;28;20378;-90
2021/07/02 01:42:41;;;;;;;25.47;20.43;;;17.70;99.90;;;;;;5097821;28;20403;-89
2021/07/02 01:45:08;;;;;;;23.95;20.35;;;17.70;99.90;;;;;;5097370;28;20366;-88
2021/07/02 01:47:34;;;;;;;28.15;21.13;;;17.60;99.90;;;;;;5097520;28;20407;-88
2021/07/02 01:50:01;;;;;;;27.85;19.77;;;17.50;99.90;;;;;;5096765;28;20433;-89
2021/07/02 01:52:27;;;;;;;22.55;19.00;;;17.50;99.90;;;;;;5097671;28;20375;-88
2021/07/02 01:54:52;;;;;;;27.43;17.93;;;17.60;99.90;;;;;;5097705;28;20373;-88
2021/07/02 01:57:26;;;;;;;21.33;18.00;;;17.70;99.90;;;;;;5097235;28;20453;-90
2021/07/02 01:59:53;;;;;;;22.42;18.92;;;17.70;99.90;;;;;;5115973;28;20392;-89
2021/07/02 02:02:18;;;;;;;25.42;20.15;;;17.60;99.90;;;;;;5116025;28;20832;-90
2021/07/02 02:04:44;;;;;;;23.77;19.58;;;17.50;99.90;;;;;;5096803;28;20424;-89
2021/07/02 02:07:10;;;;;;;25.50;19.65;;;17.40;99.90;;;;;;5097549;28;20375;-90
2021/07/02 02:09:36;;;;;;;24.07;20.43;;;17.40;99.90;;;;;;5097418;28;20402;-90
2021/07/02 02:12:02;;;;;;;27.23;20.77;;;17.40;99.90;;;;;;5097790;28;20413;-90
2021/07/02 02:14:28;;;;;;;24.30;19.55;;;17.40;99.90;;;;;;5097665;28;20371;-89
2021/07/02 02:16:54;;;;;;;26.70;20.25;;;17.40;99.90;;;;;;5096932;28;20366;-88
2021/07/02 02:19:20;;;;;;;28.27;20.10;;;17.60;99.90;;;;;;5097421;28;20420;-90
2021/07/02 02:21:46;;;;;;;26.70;21.25;;;17.40;99.90;;;;;;5097311;28;20453;-90
2021/07/02 02:24:12;;;;;;;31.10;20.88;;;17.40;99.90;;;;;;5095883;28;20888;-90
2021/07/02 02:26:37;;;;;;;24.90;21.60;;;17.40;99.90;;;;;;5097086;28;20996;-90
2021/07/02 02:29:04;;;;;;;29.60;20.92;;;17.30;99.90;;;;;;5096963;28;20945;-91
2021/07/02 02:31:30;;;;;;;28.67;21.70;;;17.30;99.90;;;;;;5097072;28;20391;-91
2021/07/02 02:33:56;;;;;;;24.03;21.43;;;17.30;99.90;;;;;;5097895;28;20374;-90
2021/07/02 02:36:21;;;;;;;26.63;21.52;;;17.30;99.90;;;;;;5097685;28;20725;-89
2021/07/02 02:38:47;;;;;;;26.88;21.10;;;17.30;99.90;;;;;;5096661;28;20751;-90
2021/07/02 02:41:13;;;;;;;28.03;20.67;;;17.30;99.90;;;;;;5098011;28;20388;-90
2021/07/02 02:43:39;;;;;;;26.02;20.45;;;17.30;99.90;;;;;;5096879;28;20439;-91
2021/07/02 02:46:04;;;;;;;28.95;22.25;;;17.30;99.90;;;;;;5115860;28;20391;-89
2021/07/02 02:48:30;;;;;;;25.87;21.83;;;17.40;99.90;;;;;;5096515;28;20375;-90
2021/07/02 02:50:56;;;;;;;27.05;20.65;;;17.20;99.90;;;;;;5095953;28;20835;-90
2021/07/02 02:53:21;;;;;;;27.47;20.87;;;17.30;99.90;;;;;;5096310;28;20359;-90
2021/07/02 02:55:47;;;;;;;27.00;21.08;;;17.20;99.90;;;;;;5096133;28;20403;-92
2021/07/02 02:58:13;;;;;;;27.17;20.77;;;17.20;99.90;;;;;;5096250;28;20868;-89
2021/07/02 03:00:38;;;;;;;24.17;18.80;;;17.20;99.90;;;;;;5096499;28;21040;-89
2021/07/02 03:03:04;;;;;;;25.30;19.25;;;17.30;99.90;;;;;;5096266;28;20371;-91
2021/07/02 03:05:30;;;;;;;24.67;19.00;;;17.30;99.90;;;;;;5095999;28;20428;-90
2021/07/02 03:07:56;;;;;;;25.00;19.37;;;17.30;99.90;;;;;;5096092;28;20389;-89
2021/07/02 03:10:22;;;;;;;22.15;17.20;;;17.30;99.90;;;;;;5096209;28;20895;-90
2021/07/02 03:12:48;;;;;;;19.88;16.15;;;17.30;99.90;;;;;;5096243;28;20399;-89
2021/07/02 03:15:14;;;;;;;20.48;16.00;;;17.30;99.90;;;;;;5114855;28;20967;-90
2021/07/02 03:17:40;;;;;;;21.30;16.08;;;17.40;99.90;;;;;;5095753;28;20371;-89
2021/07/02 03:20:08;;;;;;;22.17;16.52;;;17.40;99.90;;;;;;5096114;28;20460;-90
2021/07/02 03:22:34;;;;;;;20.52;17.02;;;17.40;99.90;;;;;;5096292;28;20375;-88
2021/07/02 03:25:00;;;;;;;20.20;17.15;;;17.40;99.90;;;;;;5096137;28;20709;-90
2021/07/02 03:27:25;;;;;;;20.60;16.77;;;17.40;99.90;;;;;;5095542;28;20382;-91
2021/07/02 03:29:51;;;;;;;20.38;17.83;;;17.40;99.90;;;;;;5095448;28;20397;-89
2021/07/02 03:32:18;;;;;;;22.33;18.03;;;17.40;99.90;;;;;;5095792;28;20381;-90
2021/07/02 03:34:44;;;;;;;20.70;17.38;;;17.40;99.90;;;;;;5095434;28;20365;-90
2021/07/02 03:37:15;;;;;;;24.05;18.27;;;17.50;99.90;;;;;;5094704;28;20359;-92
2021/07/02 03:39:40;;;;;;;24.38;19.42;;;17.60;99.90;;;;;;5095099;28;20391;-88
2021/07/02 03:42:07;;;;;;;24.98;20.42;;;17.60;99.90;;;;;;5095592;28;20401;-88
2021/07/02 03:44:33;;;;;;;27.23;22.67;;;17.50;99.90;;;;;;5095826;28;20421;-89
2021/07/02 03:46:59;;;;;;;30.25;22.42;;;17.60;99.90;;;;;;5095085;28;20363;-90
2021/07/02 03:49:25;;;;;;;29.23;22.77;;;17.50;99.90;;;;;;5095910;28;20895;-90
2021/07/02 03:51:50;;;;;;;29.23;23.03;;;17.40;99.90;;;;;;5094653;28;20872;-89
2021/07/02 03:54:16;;;;;;;29.65;23.15;;;17.60;99.90;;;;;;5096371;28;20381;-90
2021/07/02 03:57:10;;;;;;;23.27;20.13;;;17.50;99.90;;;;;;5094990;28;20424;-90
2021/07/02 03:59:27;;;;;;;28.52;21.35;;;17.60;99.90;;;;;;5112060;28;20387;-90
2021/07/02 04:01:53;;;;;;;23.02;19.98;;;17.70;99.90;;;;;;5094328;28;20367;-87
2021/07/02 04:04:19;;;;;;;21.87;19.27;;;17.80;99.90;;;;;;5113956;28;20367;-88
2021/07/02 04:06:44;;;;;;;23.25;19.40;;;17.80;99.90;;;;;;5095231;28;20428;-89
2021/07/02 04:09:10;;;;;;;24.93;19.63;;;17.80;99.90;;;;;;5095497;28;20374;-89
2021/07/02 04:11:35;;;;;;;23.58;19.90;;;17.80;99.90;;;;;;5095633;28;20387;-89
2021/07/02 04:14:01;;;;;;;23.23;19.33;;;17.90;99.90;;;;;;5113946;28;20363;-89
2021/07/02 04:16:27;;;;;;;24.42;19.33;;;17.90;99.90;;;;;;5095683;28;20822;-89
2021/07/02 04:18:52;;;;;;;19.33;17.33;;;18.10;99.90;;;;;;5094526;28;20630;-89
2021/07/02 04:21:18;;;;;;;18.70;16.70;;;18.30;99.90;;;;;;5094606;28;20729;-87
2021/07/02 04:23:44;;;;;;;18.87;16.37;;;18.50;99.90;;;;;;5095308;28;20370;-87
2021/07/02 04:26:09;;;;;;;18.63;16.23;;;18.70;99.90;;;;;;5094873;28;20366;-90
2021/07/02 04:28:35;;;;;;;18.92;16.10;;;18.90;99.90;;;;;;5094780;28;20371;-87
2021/07/02 04:31:00;;;;;;;19.53;14.93;;;19.00;99.90;;;;;;5095253;28;20382;-91
2021/07/02 04:33:26;;;;;;;16.73;14.23;;;19.00;99.90;;;;;;5095214;28;20470;-89
2021/07/02 04:35:52;;;;;;;17.40;15.20;;;19.10;99.90;;;;;;5112936;28;20366;-88
2021/07/02 04:38:17;;;;;;;18.48;15.43;;;19.20;99.90;;;;;;5095364;28;20370;-92
2021/07/02 04:40:43;;;;;;;19.47;15.07;;;19.10;99.90;;;;;;5095300;28;20385;-89
2021/07/02 04:43:09;;;;;;;17.58;15.20;;;19.20;99.90;;;;;;5094758;28;20371;-91
2021/07/02 04:45:34;;;;;;;16.90;15.07;;;19.20;99.90;;;;;;5095866;28;20871;-93
2021/07/02 04:48:00;;;;;;;17.55;13.70;;;19.50;99.90;;;;;;5116177;28;20380;-89
2021/07/02 04:50:28;;;;;;;16.70;14.10;;;19.60;99.90;;;;;;5099134;28;21017;-93
2021/07/02 04:52:54;;;;;;;15.73;13.60;;;19.60;99.90;;;;;;5117913;28;20366;-90
2021/07/02 04:55:19;;;;;;;14.05;12.60;;;19.90;99.90;;;;;;5098828;28;20479;-89
2021/07/02 04:57:45;;;;;;;17.03;13.53;;;20.00;99.90;;;;;;5099839;28;20375;-90
2021/07/02 05:00:12;;;;;;;14.43;12.93;;;20.10;99.90;;;;;;5098943;28;20377;-89
2021/07/02 05:02:37;;;;;;;15.98;13.35;;;20.10;99.90;;;;;;5117464;28;20374;-93
2021/07/02 05:05:03;;;;;;;17.92;14.27;;;20.10;99.90;;;;;;5098693;28;20378;-88
2021/07/02 05:07:30;;;;;;;15.88;13.68;;;20.20;99.90;;;;;;5098332;28;20381;-87
2021/07/02 05:09:56;;;;;;;17.73;13.68;;;20.10;99.90;;;;;;5097626;28;20387;-92
2021/07/02 05:12:22;;;;;;;16.70;13.63;;;20.10;99.90;;;;;;5098100;28;20366;-91
2021/07/02 05:14:48;;;;;;;17.45;12.95;;;20.10;99.90;;;;;;5099706;28;20377;-90
2021/07/02 05:17:13;;;;;;;13.93;12.30;;;20.20;99.90;;;;;;5117605;28;20864;-91
2021/07/02 05:19:42;;;;;;;17.90;12.52;;;20.70;99.90;;;;;;5098314;28;20385;-87
2021/07/02 05:22:13;;;;;;;14.93;12.70;;;21.20;99.90;;;;;;5098440;28;20363;-90
2021/07/02 05:24:42;;;;;;;16.85;14.20;;;21.20;99.90;;;;;;5098168;28;20378;-93
2021/07/02 05:27:15;;;;;;;17.48;14.23;;;20.80;99.90;;;;;;5098428;28;20369;-90
2021/07/02 05:29:41;;;;;;;19.80;15.40;;;20.60;99.90;;;;;;5097714;28;20366;-88
2021/07/02 05:32:07;;;;;;;18.85;15.32;;;20.40;99.90;;;;;;5098020;28;20793;-89
2021/07/02 05:34:33;;;;;;;18.88;16.13;;;20.20;99.90;;;;;;5097586;28;20367;-90
2021/07/02 05:36:59;;;;;;;19.27;16.13;;;20.10;99.90;;;;;;5096713;28;20401;-88
2021/07/02 05:39:25;;;;;;;21.15;17.42;;;20.10;99.90;;;;;;5098957;28;20398;-88
2021/07/02 05:41:57;;;;;;;19.70;17.13;;;19.90;99.90;;;;;;5097602;28;20890;-89
2021/07/02 05:44:23;;;;;;;23.63;18.98;;;19.80;99.90;;;;;;5097171;28;20428;-89
2021/07/02 05:46:49;;;;;;;22.27;18.85;;;19.70;99.90;;;;;;5097076;28;20379;-89
2021/07/02 05:49:15;;;;;;;24.33;19.60;;;19.70;99.90;;;;;;5114524;28;20883;-89
2021/07/02 05:51:41;;;;;;;23.33;18.98;;;19.40;99.90;;;;;;5097634;28;20469;-90
2021/07/02 05:54:08;;;;;;;26.23;20.07;;;19.40;99.90;;;;;;5097333;28;20461;-88
2021/07/02 05:56:33;;;;;;;22.98;19.75;;;19.30;99.90;;;;;;5097104;28;20385;-88
2021/07/02 05:59:02;;;;;;;20.97;18.77;;;19.20;99.90;;;;;;5096030;28;20378;-89
2021/07/02 06:01:29;;;;;;;21.65;18.45;;;19.10;99.90;;;;;;5115088;28;20416;-88
2021/07/02 06:03:55;;;;;;;20.98;17.98;;;19.10;99.90;;;;;;5115612;28;20371;-89
2021/07/02 06:06:21;;;;;;;21.45;17.08;;;19.10;99.90;;;;;;5097245;28;20371;-91
2021/07/02 06:08:50;;;;;;;22.38;17.05;;;19.20;99.90;;;;;;5096744;28;20381;-87
2021/07/02 06:11:15;;;;;;;18.15;15.85;;;19.40;99.90;;;;;;5096921;28;20386;-89
2021/07/02 06:13:43;;;;;;;20.10;15.50;;;19.70;99.90;;;;;;5097116;28;20367;-87
2021/07/02 06:16:12;;;;;;;18.85;15.50;;;19.90;99.90;;;;;;5115355;28;20362;-89
2021/07/02 06:18:37;;;;;;;20.42;16.38;;;19.90;99.90;;;;;;5097034;28;20379;-90
2021/07/02 06:21:09;;;;;;;20.30;15.03;;;19.90;99.90;;;;;;5115196;28;20412;-90
2021/07/02 06:23:35;;;;;;;17.08;14.38;;;20.00;99.90;;;;;;5096925;28;20948;-88
2021/07/02 06:26:02;;;;;;;17.27;13.65;;;20.20;99.90;;;;;;5096698;28;20392;-91
2021/07/02 06:28:29;;;;;;;15.15;13.35;;;20.80;99.90;;;;;;5097078;28;20847;-88
2021/07/02 06:30:55;;;;;;;16.23;13.93;;;20.90;99.90;;;;;;5096634;28;20397;-87
2021/07/02 06:33:24;;;;;;;16.27;13.63;;;21.00;99.90;;;;;;5096526;28;20725;-87
2021/07/02 06:35:50;;;;;;;17.83;13.35;;;21.10;99.90;;;;;;5096242;28;20454;-89
2021/07/02 06:38:22;;;;;;;16.70;13.23;;;21.50;99.90;;;;;;5096008;28;20359;-88
2021/07/02 06:40:48;;;;;;;15.98;13.00;;;21.60;99.90;;;;;;5115351;28;20453;-88
2021/07/02 06:43:17;;;;;;;16.77;12.67;;;21.20;99.90;;;;;;5096470;28;20367;-87
2021/07/02 06:45:43;;;;;;;13.40;11.60;;;;;;;;;;5097107;28;20378;-90
2021/07/02 06:48:09;;;;;;;14.90;11.32;;;21.60;99.90;;;;;;5095797;28;20463;-87
2021/07/02 06:50:40;;;;;;;13.73;12.25;;;21.70;99.90;;;;;;5114512;28;20390;-88
2021/07/02 06:53:07;;;;;;;15.13;11.95;;;21.70;99.90;;;;;;5096415;28;20374;-90
2021/07/02 06:55:36;;;;;;;18.05;14.18;;;21.80;99.90;;;;;;5096900;28;20698;-89
2021/07/02 06:58:03;;;;;;;17.15;14.20;;;22.10;99.90;;;;;;5096922;28;20403;-91
2021/07/02 07:00:30;;;;;;;16.13;13.95;;;22.10;99.90;;;;;;5096593;28;20438;-92
2021/07/02 07:02:56;;;;;;;17.00;13.73;;;22.00;99.90;;;;;;5097853;28;20370;-91
2021/07/02 07:05:22;;;;;;;18.08;14.13;;;21.90;99.90;;;;;;5097518;28;20385;-87
2021/07/02 07:07:50;;;;;;;22.13;15.63;;;21.90;99.90;;;;;;5114913;28;20389;-89
2021/07/02 07:10:16;;;;;;;19.35;14.88;;;21.70;99.90;;;;;;5096487;28;20402;-88
2021/07/02 07:12:45;;;;;;;18.33;15.20;;;21.40;99.90;;;;;;5095691;28;20378;-88
2021/07/02 07:15:11;;;;;;;16.70;13.85;;;21.20;99.90;;;;;;5095586;28;20367;-89
2021/07/02 07:17:37;;;;;;;19.30;14.38;;;21.20;99.90;;;;;;5096397;28;20837;-90
2021/07/02 07:20:03;;;;;;;15.63;12.83;;;21.00;99.90;;;;;;5096593;28;20419;-87
2021/07/02 07:22:31;;;;;;;17.00;13.00;;;21.70;99.90;;;;;;5096504;28;20681;-88
2021/07/02 07:24:57;;;;;;;15.43;12.40;;;21.90;99.90;;;;;;5096333;28;20374;-87
2021/07/02 07:27:22;;;;;;;14.93;11.50;;;22.20;99.90;;;;;;5116075;28;20733;-87
2021/07/02 07:29:48;;;;;;;17.13;13.07;;;22.40;99.90;;;;;;5095207;28;20740;-90
2021/07/02 07:32:16;;;;;;;18.10;12.20;;;22.60;99.90;;;;;;5095753;28;20904;-89
2021/07/02 07:34:57;;;;;;;15.03;12.27;;;22.60;99.90;;;;;;5095259;28;20387;-89
2021/07/02 07:37:25;;;;;;;16.67;11.25;;;22.50;99.90;;;;;;5095364;28;20677;-89
2021/07/02 07:39:53;;;;;;;16.58;11.82;;;22.50;99.90;;;;;;5094226;28;20386;-90
2021/07/02 07:42:19;;;;;;;14.20;12.07;;;22.20;99.90;;;;;;5113771;28;20389;-89
2021/07/02 07:44:45;;;;;;;16.27;12.43;;;22.30;99.90;;;;;;5096079;28;20926;-88
2021/07/02 07:47:11;;;;;;;15.02;12.20;;;22.30;99.90;;;;;;5094186;28;20366;-89
2021/07/02 07:49:37;;;;;;;15.50;12.80;;;22.20;99.90;;;;;;5102640;28;20371;-90
2021/07/02 07:54:29;;;;;;;15.00;13.00;;;22.70;99.90;;;;;;5101290;28;20379;-88
2021/07/02 07:56:55;;;;;;;15.73;12.15;;;22.90;99.90;;;;;;5075117;28;20498;-89
2021/07/02 07:59:28;;;;;;;17.35;12.57;;;23.30;99.90;;;;;;5092736;28;20791;-90
2021/07/02 08:01:54;;;;;;;17.17;12.30;;;23.30;99.90;;;;;;5084633;28;20390;-89
2021/07/02 08:04:20;;;;;;;15.48;11.95;;;23.30;99.90;;;;;;5096214;28;20374;-90
2021/07/02 08:06:47;;;;;;;14.05;10.85;;;23.10;99.90;;;;;;5093406;28;20379;-91
2021/07/02 08:09:14;;;;;;;13.67;11.03;;;23.20;99.90;;;;;;5085317;28;20393;-90
2021/07/02 08:11:57;;;;;;;12.45;10.60;;;23.70;99.90;;;;;;5113973;28;20426;-93
2021/07/02 08:14:23;;;;;;;12.85;10.07;;;23.60;99.90;;;;;;5089450;28;20429;-91
2021/07/02 08:16:49;;;;;;;14.38;10.40;;;23.50;99.90;;;;;;5094129;28;20399;-90
2021/07/02 08:19:23;;;;;;;11.50;9.60;;;23.40;99.90;;;;;;5089738;28;20382;-90
2021/07/02 08:21:48;;;;;;;14.20;10.43;;;23.30;99.90;;;;;;5091986;28;20378;-91
2021/07/02 08:24:14;;;;;;;11.73;10.00;;;23.20;99.90;;;;;;5093798;28;20927;-90
2021/07/02 08:26:41;;;;;;;11.87;9.47;;;23.40;99.90;;;;;;5113974;28;20879;-88
2021/07/02 08:31:51;;;;;;;12.70;8.70;;;23.90;99.90;;;;;;5103855;28;20442;-91
2021/07/02 08:34:20;;;;;;;14.17;9.40;;;24.00;99.90;;;;;;5107632;28;20380;-88
2021/07/02 08:36:46;;;;;;;11.17;8.73;;;23.80;99.90;;;;;;5090060;28;20777;-88
2021/07/02 08:39:12;;;;;;;11.65;9.52;;;23.40;99.90;;;;;;5094707;28;20883;-90
2021/07/02 08:41:40;;;;;;;13.23;9.40;;;23.20;99.90;;;;;;5096717;28;20378;-90
2021/07/02 08:44:06;;;;;;;13.23;10.15;;;23.40;99.90;;;;;;5090999;28;20790;-89
2021/07/02 08:46:34;;;;;;;14.03;11.03;;;23.80;99.90;;;;;;5096493;28;20372;-90
2021/07/02 08:49:01;;;;;;;14.07;9.98;;;24.00;99.90;;;;;;5097261;28;20836;-90
2021/07/02 08:51:26;;;;;;;11.95;9.85;;;24.00;99.90;;;;;;5095030;28;20388;-90
2021/07/02 08:53:55;;;;;;;12.55;9.65;;;24.40;99.90;;;;;;5095059;28;20376;-90
2021/07/02 08:56:23;;;;;;;13.88;9.57;;;24.50;99.90;;;;;;5096938;28;20832;-91
2021/07/02 08:58:49;;;;;;;15.40;9.43;;;24.60;99.90;;;;;;5096347;28;20482;-90
2021/07/02 09:01:40;;;;;;;12.80;9.32;;;24.60;99.90;;;;;;5096125;28;20936;-91
2021/07/02 09:04:30;;;;;;;11.07;8.77;;;25.10;99.90;;;;;;5095082;28;20466;-88
2021/07/02 09:07:08;;;;;;;11.38;8.57;;;25.10;99.90;;;;;;5090861;28;20378;-89
2021/07/02 09:09:48;;;;;;;10.25;8.15;;;25.10;99.90;;;;;;5094612;28;20371;-89
2021/07/02 09:12:16;;;;;;;13.87;9.10;;;25.10;99.90;;;;;;5093693;28;20396;-88
2021/07/02 09:14:55;;;;;;;13.20;8.07;;;25.00;99.90;;;;;;5089635;28;20380;-89
2021/07/02 09:17:20;;;;;;;16.77;8.30;;;25.00;99.90;;;;;;5104870;28;20388;-90
2021/07/02 09:20:00;;;;;;;10.45;7.63;;;24.80;99.90;;;;;;5087209;28;20372;-90
2021/07/02 09:22:26;;;;;;;8.65;7.30;;;24.80;99.90;;;;;;5088119;28;20376;-88
2021/07/02 09:24:52;;;;;;;10.02;7.82;;;25.00;99.90;;;;;;5105052;28;20367;-90
2021/07/02 09:27:29;;;;;;;8.02;6.40;;;25.10;99.90;;;;;;5090078;28;20955;-88
2021/07/02 09:30:18;;;;;;;10.20;6.80;;;25.10;99.90;;;;;;5085565;28;20373;-89
2021/07/02 09:32:50;;;;;;;10.55;7.40;;;25.30;99.90;;;;;;5089285;28;20381;-89
2021/07/02 09:35:18;;;;;;;10.15;6.82;;;25.40;99.90;;;;;;5105676;28;20368;-89
2021/07/02 09:37:49;;;;;;;9.75;7.05;;;25.60;99.90;;;;;;5086357;28;20876;-90
2021/07/02 09:40:21;;;;;;;13.40;6.40;;;25.80;99.90;;;;;;5089177;28;20372;-88
2021/07/02 09:43:00;;;;;;;7.95;6.10;;;25.80;99.90;;;;;;5089650;28;20387;-89
2021/07/02 09:45:29;;;;;;;8.40;6.80;;;25.50;99.90;;;;;;5088379;28;20407;-87
2021/07/02 09:47:55;;;;;;;11.55;7.00;;;25.20;99.90;;;;;;5086646;28;20371;-89
2021/07/02 09:50:27;;;;;;;10.13;7.05;;;25.40;99.90;;;;;;5090864;28;20385;-90
2021/07/02 09:53:00;;;;;;;10.43;6.72;;;25.70;99.90;;;;;;5087632;28;20367;-90
2021/07/02 09:55:29;;;;;;;8.48;6.10;;;25.80;99.90;;;;;;5086518;28;20366;-89
2021/07/02 09:58:09;;;;;;;8.30;5.95;;;25.60;99.90;;;;;;5085382;28;20864;-88
2021/07/02 10:00:40;;;;;;;8.35;6.75;;;25.50;99.90;;;;;;5087235;28;20360;-92
2021/07/02 10:03:07;;;;;;;9.05;6.40;;;25.50;99.90;;;;;;5085950;28;20488;-90
2021/07/02 10:05:53;;;;;;;6.70;5.95;;;25.70;99.90;;;;;;5088269;28;20404;-88
2021/07/02 10:08:21;;;;;;;8.13;5.78;;;26.20;99.90;;;;;;5070876;28;20489;-88
2021/07/02 10:10:53;;;;;;;7.45;5.78;;;26.70;99.90;;;;;;5104862;28;20389;-89
2021/07/02 10:13:27;;;;;;;9.45;6.47;;;26.30;99.90;;;;;;5088891;28;20493;-88
2021/07/02 10:15:56;;;;;;;9.45;6.88;;;25.80;99.90;;;;;;5087591;28;20365;-89
2021/07/02 10:18:24;;;;;;;9.43;7.10;;;25.50;99.90;;;;;;5087448;28;20363;-88
2021/07/02 10:20:50;;;;;;;11.52;7.20;;;25.30;99.90;;;;;;5103828;28;20753;-89
2021/07/02 10:23:27;;;;;;;10.88;6.78;;;25.00;99.90;;;;;;5109094;28;20369;-89
2021/07/02 10:25:55;;;;;;;8.35;6.80;;;25.10;99.90;;;;;;5086786;28;20380;-90
2021/07/02 10:28:23;;;;;;;11.32;7.22;;;25.50;99.90;;;;;;5108288;28;20497;-91
2021/07/02 10:30:49;;;;;;;9.03;7.13;;;25.80;99.90;;;;;;5085312;28;20909;-87
2021/07/02 10:33:22;;;;;;;12.13;6.80;;;26.40;99.90;;;;;;5088621;28;20458;-90
2021/07/02 10:35:54;;;;;;;9.17;6.77;;;26.60;99.90;;;;;;5085695;28;20365;-86
2021/07/02 10:38:34;;;;;;;12.68;6.70;;;26.30;99.90;;;;;;5104727;28;20383;-87
2021/07/02 10:41:11;;;;;;;10.48;6.72;;;26.10;99.90;;;;;;5103770;28;20751;-90
2021/07/02 10:43:57;;;;;;;10.07;7.15;;;25.80;99.90;;;;;;5078570;28;20751;-91
2021/07/02 10:46:25;;;;;;;9.50;7.22;;;25.80;99.90;;;;;;5078127;28;20842;-87
2021/07/02 10:48:56;;;;;;;10.98;7.55;;;25.90;99.90;;;;;;5093381;28;20393;-88
2021/07/02 10:51:39;;;;;;;12.90;7.50;;;25.50;99.90;;;;;;5110531;28;20390;-88
2021/07/02 10:54:29;;;;;;;9.43;7.00;;;25.00;99.90;;;;;;5080476;28;20412;-88
2021/07/02 10:57:02;;;;;;;11.02;7.30;;;24.90;99.90;;;;;;5113434;28;20363;-90
2021/07/02 10:59:37;;;;;;;11.63;7.00;;;24.90;99.90;;;;;;5113365;28;20368;-90
2021/07/02 11:02:09;;;;;;;8.18;6.68;;;24.90;99.90;;;;;;5078790;28;20376;-89
2021/07/02 11:05:01;;;;;;;8.20;6.43;;;25.20;99.90;;;;;;5077682;28;20478;-88
2021/07/02 11:07:30;;;;;;;8.13;6.20;;;25.10;99.90;;;;;;5079936;28;20899;-87
2021/07/02 11:10:02;;;;;;;11.38;6.40;;;25.40;99.90;;;;;;5084660;28;20384;-88
2021/07/02 11:12:34;;;;;;;10.00;6.30;;;25.30;99.90;;;;;;5093123;28;20406;-89
2021/07/02 11:15:05;;;;;;;10.50;6.93;;;25.10;99.90;;;;;;5088165;28;20392;-88
2021/07/02 11:17:45;;;;;;;9.65;6.47;;;24.90;99.90;;;;;;5086363;28;20372;-90
2021/07/02 11:20:12;;;;;;;9.32;6.28;;;24.90;99.90;;;;;;5087014;28;20463;-92
2021/07/02 11:22:39;;;;;;;7.57;6.03;;;24.90;99.90;;;;;;5080800;28;20376;-89
2021/07/02 11:25:07;;;;;;;10.00;6.05;;;24.90;99.90;;;;;;5089041;28;20378;-93
2021/07/02 11:27:45;;;;;;;10.40;5.75;;;25.00;99.90;;;;;;5088572;28;20428;-87
2021/07/02 11:32:58;;;;;;;13.37;6.53;;;25.50;99.90;;;;;;5106161;28;20414;-90
2021/07/02 11:35:29;;;;;;;8.98;6.53;;;25.40;99.90;;;;;;5111234;28;20413;-88
2021/07/02 11:38:07;;;;;;;10.25;6.60;;;25.40;99.90;;;;;;5093887;28;20487;-89
2021/07/02 11:40:35;;;;;;;9.93;6.70;;;24.90;99.90;;;;;;5083660;28;20374;-90
2021/07/02 11:43:09;;;;;;;9.13;5.70;;;24.80;99.90;;;;;;5100424;28;20497;-88
2021/07/02 11:45:44;;;;;;;8.10;5.68;;;25.00;99.90;;;;;;5102305;28;20431;-91
2021/07/02 11:48:32;;;;;;;11.18;6.00;;;25.40;99.90;;;;;;5082294;28;20369;-88
2021/07/02 11:51:05;;;;;;;8.88;6.03;;;25.70;99.90;;;;;;5107383;28;20384;-89
2021/07/02 11:53:45;;;;;;;7.50;6.30;;;25.70;99.90;;;;;;5084803;28;20885;-90
2021/07/02 11:56:22;;;;;;;8.50;5.80;;;25.70;99.90;;;;;;5086599;28;20400;-88
2021/07/02 11:59:03;;;;;;;10.05;5.75;;;25.50;99.90;;;;;;5087161;28;20451;-89
2021/07/02 12:01:41;;;;;;;10.55;5.57;;;25.50;99.90;;;;;;5082072;28;20380;-89
2021/07/02 12:04:16;;;;;;;8.23;5.70;;;25.40;99.90;;;;;;5093641;28;20378;-89
2021/07/02 12:06:46;;;;;;;5.90;5.20;;;25.40;99.90;;;;;;5093463;28;20453;-91
2021/07/02 12:09:24;;;;;;;7.03;5.32;;;25.40;99.90;;;;;;5093641;28;20378;-89
2021/07/02 12:11:59;;;;;;;8.07;5.35;;;25.40;99.90;;;;;;5092584;28;20456;-91
2021/07/02 12:14:29;;;;;;;7.20;5.55;;;25.20;99.90;;;;;;5078236;28;20381;-90
2021/07/02 12:16:59;;;;;;;8.83;5.40;;;25.00;99.90;;;;;;5106028;28;20874;-91
2021/07/02 12:19:37;;;;;;;14.52;6.20;;;24.80;99.90;;;;;;5088442;28;20912;-89
2021/07/02 12:22:09;;;;;;;8.07;5.28;;;24.80;99.90;;;;;;5087295;28;20458;-91
2021/07/02 12:24:41;;;;;;;7.45;5.10;;;24.90;99.90;;;;;;5089650;28;20475;-89
2021/07/02 12:27:13;;;;;;;8.30;5.68;;;25.00;99.90;;;;;;5103214;28;20372;-90
2021/07/02 12:29:43;;;;;;;7.70;5.80;;;25.30;99.90;;;;;;5090167;28;20472;-89
2021/07/02 12:32:13;;;;;;;8.38;6.28;;;25.20;99.90;;;;;;5111953;28;20395;-91
2021/07/02 12:34:44;;;;;;;7.68;6.20;;;25.10;99.90;;;;;;5085328;28;20421;-92
2021/07/02 12:37:12;;;;;;;10.00;6.10;;;25.20;99.90;;;;;;5082310;28;20396;-90
2021/07/02 12:39:50;;;;;;;7.45;6.15;;;25.40;99.90;;;;;;5087371;28;20368;-88
2021/07/02 12:42:34;;;;;;;10.00;5.75;;;25.50;99.90;;;;;;5077710;28;20490;-88
2021/07/02 12:45:12;;;;;;;11.80;6.53;;;25.80;99.90;;;;;;5079746;28;20378;-88
2021/07/02 12:47:45;;;;;;;7.45;6.35;;;25.70;99.90;;;;;;5079515;28;20479;-90